sensor_id;sensor_type;location;lat;lon;timestamp;P1;durP1;ratioP1;P2;durP2;ratioP2
5833;SDS011;2943;48.012;10.968;2024-02-23T00:01:44;1.10;;;1.10;;
5833;SDS011;2943;48.012;10.968;2024-02-23T00:04:11;1.60;;;1.50;;
5833;SDS011;2943;48.012;10.968;2024-02-23T00:06:41;1.27;;;1.27;;
5833;SDS011;2943;48.012;10.968;2024-02-23T00:09:08;2.37;;;2.17;;
5833;SDS011;2943;48.012;10.968;2024-02-23T00:11:35;1.40;;;1.30;;
5833;SDS011;2943;48.012;10.968;2024-02-23T00:14:09;2.97;;;1.10;;
5833;SDS011;2943;48.012;10.968;2024-02-23T00:16:39;1.20;;;1.20;;
5833;SDS011;2943;48.012;10.968;2024-02-23T00:19:08;0.87;;;0.87;;
5833;SDS011;2943;48.012;10.968;2024-02-23T00:21:35;2.80;;;1.13;;
5833;SDS011;2943;48.012;10.968;2024-02-23T00:24:03;1.00;;;1.00;;
5833;SDS011;2943;48.012;10.968;2024-02-23T00:26:30;1.00;;;1.00;;
5833;SDS011;2943;48.012;10.968;2024-02-23T00:28:57;1.00;;;0.90;;
5833;SDS011;2943;48.012;10.968;2024-02-23T00:31:24;0.93;;;0.93;;
5833;SDS011;2943;48.012;10.968;2024-02-23T00:33:51;1.03;;;0.93;;
5833;SDS011;2943;48.012;10.968;2024-02-23T00:36:24;1.60;;;1.50;;
5833;SDS011;2943;48.012;10.968;2024-02-23T00:38:54;1.33;;;1.23;;
5833;SDS011;2943;48.012;10.968;2024-02-23T00:41:21;1.67;;;0.90;;
5833;SDS011;2943;48.012;10.968;2024-02-23T00:43:48;1.03;;;1.03;;
5833;SDS011;2943;48.012;10.968;2024-02-23T00:46:19;1.00;;;0.90;;
5833;SDS011;2943;48.012;10.968;2024-02-23T00:48:46;1.07;;;1.07;;
5833;SDS011;2943;48.012;10.968;2024-02-23T00:51:13;0.90;;;0.90;;
5833;SDS011;2943;48.012;10.968;2024-02-23T00:53:41;1.27;;;1.00;;
5833;SDS011;2943;48.012;10.968;2024-02-23T00:56:08;1.20;;;0.97;;
5833;SDS011;2943;48.012;10.968;2024-02-23T00:58:35;0.90;;;0.90;;
5833;SDS011;2943;48.012;10.968;2024-02-23T01:01:03;0.90;;;0.90;;
5833;SDS011;2943;48.012;10.968;2024-02-23T01:03:30;0.80;;;0.80;;
5833;SDS011;2943;48.012;10.968;2024-02-23T01:05:57;1.00;;;1.00;;
5833;SDS011;2943;48.012;10.968;2024-02-23T01:08:25;1.10;;;0.90;;
5833;SDS011;2943;48.012;10.968;2024-02-23T01:10:53;0.90;;;0.90;;
5833;SDS011;2943;48.012;10.968;2024-02-23T01:13:20;1.10;;;0.90;;
5833;SDS011;2943;48.012;10.968;2024-02-23T01:15:47;1.00;;;1.00;;
5833;SDS011;2943;48.012;10.968;2024-02-23T01:18:14;0.90;;;0.90;;
5833;SDS011;2943;48.012;10.968;2024-02-23T01:20:41;0.90;;;0.90;;
5833;SDS011;2943;48.012;10.968;2024-02-23T01:23:09;0.90;;;0.90;;
5833;SDS011;2943;48.012;10.968;2024-02-23T01:25:36;1.00;;;1.00;;
5833;SDS011;2943;48.012;10.968;2024-02-23T01:28:04;1.43;;;1.00;;
5833;SDS011;2943;48.012;10.968;2024-02-23T01:30:31;0.90;;;0.90;;
5833;SDS011;2943;48.012;10.968;2024-02-23T01:32:58;1.30;;;1.20;;
5833;SDS011;2943;48.012;10.968;2024-02-23T01:35:25;1.30;;;1.00;;
5833;SDS011;2943;48.012;10.968;2024-02-23T01:37:54;1.67;;;1.00;;
5833;SDS011;2943;48.012;10.968;2024-02-23T01:40:21;0.90;;;0.90;;
5833;SDS011;2943;48.012;10.968;2024-02-23T01:42:48;1.13;;;1.10;;
5833;SDS011;2943;48.012;10.968;2024-02-23T01:45:16;1.00;;;1.00;;
5833;SDS011;2943;48.012;10.968;2024-02-23T01:47:43;1.20;;;1.20;;
5833;SDS011;2943;48.012;10.968;2024-02-23T01:50:10;1.50;;;1.40;;
5833;SDS011;2943;48.012;10.968;2024-02-23T01:52:37;1.30;;;1.20;;
5833;SDS011;2943;48.012;10.968;2024-02-23T01:55:05;1.50;;;1.40;;
5833;SDS011;2943;48.012;10.968;2024-02-23T01:57:32;6.80;;;1.30;;
5833;SDS011;2943;48.012;10.968;2024-02-23T01:59:59;1.00;;;1.00;;
5833;SDS011;2943;48.012;10.968;2024-02-23T02:02:28;1.63;;;1.47;;
5833;SDS011;2943;48.012;10.968;2024-02-23T02:04:55;2.70;;;1.20;;
5833;SDS011;2943;48.012;10.968;2024-02-23T02:07:22;1.40;;;1.30;;
5833;SDS011;2943;48.012;10.968;2024-02-23T02:09:50;1.53;;;1.43;;
5833;SDS011;2943;48.012;10.968;2024-02-23T02:12:25;1.80;;;1.20;;
5833;SDS011;2943;48.012;10.968;2024-02-23T02:14:53;1.30;;;0.90;;
5833;SDS011;2943;48.012;10.968;2024-02-23T02:17:20;1.10;;;1.10;;
5833;SDS011;2943;48.012;10.968;2024-02-23T02:19:49;1.47;;;1.20;;
5833;SDS011;2943;48.012;10.968;2024-02-23T02:22:16;1.30;;;1.20;;
5833;SDS011;2943;48.012;10.968;2024-02-23T02:24:42;1.30;;;1.20;;
5833;SDS011;2943;48.012;10.968;2024-02-23T02:27:11;1.50;;;1.40;;
5833;SDS011;2943;48.012;10.968;2024-02-23T02:29:39;1.00;;;1.00;;
5833;SDS011;2943;48.012;10.968;2024-02-23T02:32:06;1.00;;;1.00;;
5833;SDS011;2943;48.012;10.968;2024-02-23T02:34:34;5.50;;;1.27;;
5833;SDS011;2943;48.012;10.968;2024-02-23T02:37:02;2.50;;;1.00;;
5833;SDS011;2943;48.012;10.968;2024-02-23T02:39:29;1.73;;;1.10;;
5833;SDS011;2943;48.012;10.968;2024-02-23T02:41:56;1.33;;;1.23;;
5833;SDS011;2943;48.012;10.968;2024-02-23T02:44:23;2.40;;;1.10;;
5833;SDS011;2943;48.012;10.968;2024-02-23T02:46:50;1.37;;;1.00;;
5833;SDS011;2943;48.012;10.968;2024-02-23T02:49:16;1.00;;;1.00;;
5833;SDS011;2943;48.012;10.968;2024-02-23T02:51:44;1.10;;;1.00;;
5833;SDS011;2943;48.012;10.968;2024-02-23T02:54:12;1.33;;;0.90;;
5833;SDS011;2943;48.012;10.968;2024-02-23T02:56:41;1.10;;;1.00;;
5833;SDS011;2943;48.012;10.968;2024-02-23T02:59:08;0.90;;;0.90;;
5833;SDS011;2943;48.012;10.968;2024-02-23T03:01:36;1.30;;;1.20;;
5833;SDS011;2943;48.012;10.968;2024-02-23T03:04:03;4.93;;;1.07;;
5833;SDS011;2943;48.012;10.968;2024-02-23T03:06:30;1.00;;;1.00;;
5833;SDS011;2943;48.012;10.968;2024-02-23T03:08:57;1.20;;;1.10;;
5833;SDS011;2943;48.012;10.968;2024-02-23T03:11:25;1.10;;;1.00;;
5833;SDS011;2943;48.012;10.968;2024-02-23T03:13:52;1.43;;;1.20;;
5833;SDS011;2943;48.012;10.968;2024-02-23T03:16:20;0.87;;;0.87;;
5833;SDS011;2943;48.012;10.968;2024-02-23T03:18:48;1.30;;;1.20;;
5833;SDS011;2943;48.012;10.968;2024-02-23T03:21:15;1.40;;;1.10;;
5833;SDS011;2943;48.012;10.968;2024-02-23T03:23:42;1.10;;;1.03;;
5833;SDS011;2943;48.012;10.968;2024-02-23T03:26:10;1.27;;;1.17;;
5833;SDS011;2943;48.012;10.968;2024-02-23T03:28:38;0.90;;;0.90;;
5833;SDS011;2943;48.012;10.968;2024-02-23T03:31:05;1.00;;;1.00;;
5833;SDS011;2943;48.012;10.968;2024-02-23T03:33:32;1.13;;;1.00;;
5833;SDS011;2943;48.012;10.968;2024-02-23T03:35:59;1.10;;;1.10;;
5833;SDS011;2943;48.012;10.968;2024-02-23T03:38:26;1.00;;;1.00;;
5833;SDS011;2943;48.012;10.968;2024-02-23T03:40:54;1.07;;;1.07;;
5833;SDS011;2943;48.012;10.968;2024-02-23T03:43:22;0.97;;;0.97;;
5833;SDS011;2943;48.012;10.968;2024-02-23T03:45:50;1.20;;;1.10;;
5833;SDS011;2943;48.012;10.968;2024-02-23T03:48:17;1.13;;;1.00;;
5833;SDS011;2943;48.012;10.968;2024-02-23T03:50:44;1.10;;;1.10;;
5833;SDS011;2943;48.012;10.968;2024-02-23T03:53:11;1.10;;;1.00;;
5833;SDS011;2943;48.012;10.968;2024-02-23T03:55:38;1.10;;;1.10;;
5833;SDS011;2943;48.012;10.968;2024-02-23T03:58:05;1.20;;;1.20;;
5833;SDS011;2943;48.012;10.968;2024-02-23T04:00:32;1.00;;;1.00;;
5833;SDS011;2943;48.012;10.968;2024-02-23T04:03:00;3.03;;;1.13;;
5833;SDS011;2943;48.012;10.968;2024-02-23T04:05:27;1.00;;;1.00;;
5833;SDS011;2943;48.012;10.968;2024-02-23T04:07:54;1.00;;;1.00;;
5833;SDS011;2943;48.012;10.968;2024-02-23T04:10:21;1.20;;;1.20;;
5833;SDS011;2943;48.012;10.968;2024-02-23T04:12:48;1.00;;;1.00;;
5833;SDS011;2943;48.012;10.968;2024-02-23T04:15:15;1.00;;;1.00;;
5833;SDS011;2943;48.012;10.968;2024-02-23T04:17:42;2.40;;;1.03;;
5833;SDS011;2943;48.012;10.968;2024-02-23T04:20:11;1.47;;;1.30;;
5833;SDS011;2943;48.012;10.968;2024-02-23T04:22:38;1.07;;;1.07;;
5833;SDS011;2943;48.012;10.968;2024-02-23T04:25:06;1.37;;;1.17;;
5833;SDS011;2943;48.012;10.968;2024-02-23T04:27:33;1.20;;;1.13;;
5833;SDS011;2943;48.012;10.968;2024-02-23T04:30:01;1.57;;;1.00;;
5833;SDS011;2943;48.012;10.968;2024-02-23T04:32:28;1.20;;;1.10;;
5833;SDS011;2943;48.012;10.968;2024-02-23T04:34:55;1.00;;;1.00;;
5833;SDS011;2943;48.012;10.968;2024-02-23T04:37:24;1.00;;;1.00;;
5833;SDS011;2943;48.012;10.968;2024-02-23T04:39:51;1.10;;;1.10;;
5833;SDS011;2943;48.012;10.968;2024-02-23T04:42:17;1.43;;;1.10;;
5833;SDS011;2943;48.012;10.968;2024-02-23T04:44:44;0.90;;;0.90;;
5833;SDS011;2943;48.012;10.968;2024-02-23T04:47:14;1.00;;;1.00;;
5833;SDS011;2943;48.012;10.968;2024-02-23T04:49:41;1.40;;;1.30;;
5833;SDS011;2943;48.012;10.968;2024-02-23T04:52:08;1.50;;;1.40;;
5833;SDS011;2943;48.012;10.968;2024-02-23T04:54:36;2.30;;;1.67;;
5833;SDS011;2943;48.012;10.968;2024-02-23T04:57:03;1.37;;;1.27;;
5833;SDS011;2943;48.012;10.968;2024-02-23T04:59:30;1.30;;;1.20;;
5833;SDS011;2943;48.012;10.968;2024-02-23T05:01:57;1.30;;;1.20;;
5833;SDS011;2943;48.012;10.968;2024-02-23T05:04:25;1.30;;;1.20;;
5833;SDS011;2943;48.012;10.968;2024-02-23T05:06:53;2.70;;;1.77;;
5833;SDS011;2943;48.012;10.968;2024-02-23T05:09:20;1.47;;;1.10;;
5833;SDS011;2943;48.012;10.968;2024-02-23T05:11:49;1.67;;;1.10;;
5833;SDS011;2943;48.012;10.968;2024-02-23T05:14:16;1.17;;;1.07;;
5833;SDS011;2943;48.012;10.968;2024-02-23T05:16:43;1.40;;;1.30;;
5833;SDS011;2943;48.012;10.968;2024-02-23T05:19:10;1.30;;;1.20;;
5833;SDS011;2943;48.012;10.968;2024-02-23T05:21:37;2.40;;;1.40;;
5833;SDS011;2943;48.012;10.968;2024-02-23T05:24:04;1.20;;;1.10;;
5833;SDS011;2943;48.012;10.968;2024-02-23T05:26:31;2.10;;;1.20;;
5833;SDS011;2943;48.012;10.968;2024-02-23T05:29:00;1.40;;;1.20;;
5833;SDS011;2943;48.012;10.968;2024-02-23T05:31:44;1.70;;;1.10;;
5833;SDS011;2943;48.012;10.968;2024-02-23T05:34:12;2.27;;;1.60;;
5833;SDS011;2943;48.012;10.968;2024-02-23T05:36:39;1.20;;;1.10;;
5833;SDS011;2943;48.012;10.968;2024-02-23T05:39:06;2.60;;;1.40;;
5833;SDS011;2943;48.012;10.968;2024-02-23T05:41:34;1.10;;;1.00;;
5833;SDS011;2943;48.012;10.968;2024-02-23T05:44:04;2.50;;;1.40;;
5833;SDS011;2943;48.012;10.968;2024-02-23T05:46:31;3.73;;;2.23;;
5833;SDS011;2943;48.012;10.968;2024-02-23T05:48:59;8.20;;;5.10;;
5833;SDS011;2943;48.012;10.968;2024-02-23T05:51:26;4.10;;;2.33;;
5833;SDS011;2943;48.012;10.968;2024-02-23T05:53:54;4.40;;;2.60;;
5833;SDS011;2943;48.012;10.968;2024-02-23T05:56:21;8.20;;;4.37;;
5833;SDS011;2943;48.012;10.968;2024-02-23T05:58:50;7.00;;;3.90;;
5833;SDS011;2943;48.012;10.968;2024-02-23T06:01:18;4.50;;;2.63;;
5833;SDS011;2943;48.012;10.968;2024-02-23T06:03:45;5.27;;;3.07;;
5833;SDS011;2943;48.012;10.968;2024-02-23T06:06:12;18.17;;;8.57;;
5833;SDS011;2943;48.012;10.968;2024-02-23T06:08:39;7.63;;;3.90;;
5833;SDS011;2943;48.012;10.968;2024-02-23T06:11:08;14.10;;;6.30;;
5833;SDS011;2943;48.012;10.968;2024-02-23T06:13:36;6.80;;;2.70;;
5833;SDS011;2943;48.012;10.968;2024-02-23T06:16:03;8.53;;;3.53;;
5833;SDS011;2943;48.012;10.968;2024-02-23T06:18:32;4.67;;;2.90;;
5833;SDS011;2943;48.012;10.968;2024-02-23T06:20:59;5.17;;;2.57;;
5833;SDS011;2943;48.012;10.968;2024-02-23T06:23:27;3.43;;;2.30;;
5833;SDS011;2943;48.012;10.968;2024-02-23T06:25:54;2.83;;;1.87;;
5833;SDS011;2943;48.012;10.968;2024-02-23T06:28:21;3.40;;;1.70;;
5833;SDS011;2943;48.012;10.968;2024-02-23T06:30:48;6.80;;;2.00;;
5833;SDS011;2943;48.012;10.968;2024-02-23T06:33:15;3.27;;;2.20;;
5833;SDS011;2943;48.012;10.968;2024-02-23T06:35:43;8.27;;;2.70;;
5833;SDS011;2943;48.012;10.968;2024-02-23T06:38:11;3.90;;;2.27;;
5833;SDS011;2943;48.012;10.968;2024-02-23T06:40:37;5.00;;;1.33;;
5833;SDS011;2943;48.012;10.968;2024-02-23T06:43:04;1.73;;;1.40;;
5833;SDS011;2943;48.012;10.968;2024-02-23T06:45:31;2.30;;;1.30;;
5833;SDS011;2943;48.012;10.968;2024-02-23T06:47:58;1.70;;;1.23;;
5833;SDS011;2943;48.012;10.968;2024-02-23T06:50:26;5.13;;;1.47;;
5833;SDS011;2943;48.012;10.968;2024-02-23T06:52:54;2.20;;;1.47;;
5833;SDS011;2943;48.012;10.968;2024-02-23T06:55:22;1.23;;;1.10;;
5833;SDS011;2943;48.012;10.968;2024-02-23T06:57:49;5.27;;;1.77;;
5833;SDS011;2943;48.012;10.968;2024-02-23T07:00:16;1.37;;;1.27;;
5833;SDS011;2943;48.012;10.968;2024-02-23T07:02:43;2.23;;;1.50;;
5833;SDS011;2943;48.012;10.968;2024-02-23T07:05:10;1.43;;;1.33;;
5833;SDS011;2943;48.012;10.968;2024-02-23T07:07:37;1.40;;;1.30;;
5833;SDS011;2943;48.012;10.968;2024-02-23T07:10:07;2.40;;;1.30;;
5833;SDS011;2943;48.012;10.968;2024-02-23T07:12:35;3.37;;;1.40;;
5833;SDS011;2943;48.012;10.968;2024-02-23T07:15:02;1.93;;;1.10;;
5833;SDS011;2943;48.012;10.968;2024-02-23T07:17:30;4.17;;;1.70;;
5833;SDS011;2943;48.012;10.968;2024-02-23T07:19:57;3.20;;;1.50;;
5833;SDS011;2943;48.012;10.968;2024-02-23T07:22:30;4.03;;;1.77;;
5833;SDS011;2943;48.012;10.968;2024-02-23T07:24:57;2.17;;;1.40;;
5833;SDS011;2943;48.012;10.968;2024-02-23T07:27:28;3.63;;;1.43;;
5833;SDS011;2943;48.012;10.968;2024-02-23T07:29:55;2.33;;;1.63;;
5833;SDS011;2943;48.012;10.968;2024-02-23T07:32:23;2.30;;;1.70;;
5833;SDS011;2943;48.012;10.968;2024-02-23T07:34:50;1.30;;;1.20;;
5833;SDS011;2943;48.012;10.968;2024-02-23T07:37:17;1.60;;;1.43;;
5833;SDS011;2943;48.012;10.968;2024-02-23T07:39:44;6.87;;;3.13;;
5833;SDS011;2943;48.012;10.968;2024-02-23T07:42:12;6.10;;;2.00;;
5833;SDS011;2943;48.012;10.968;2024-02-23T07:44:44;6.93;;;1.87;;
5833;SDS011;2943;48.012;10.968;2024-02-23T07:47:12;5.33;;;2.80;;
5833;SDS011;2943;48.012;10.968;2024-02-23T07:49:39;6.30;;;3.00;;
5833;SDS011;2943;48.012;10.968;2024-02-23T07:52:06;5.03;;;2.10;;
5833;SDS011;2943;48.012;10.968;2024-02-23T07:54:34;1.70;;;1.60;;
5833;SDS011;2943;48.012;10.968;2024-02-23T07:57:01;4.97;;;1.53;;
5833;SDS011;2943;48.012;10.968;2024-02-23T07:59:29;2.10;;;1.70;;
5833;SDS011;2943;48.012;10.968;2024-02-23T08:01:58;2.50;;;2.17;;
5833;SDS011;2943;48.012;10.968;2024-02-23T08:04:25;4.03;;;2.00;;
5833;SDS011;2943;48.012;10.968;2024-02-23T08:06:52;2.00;;;1.80;;
5833;SDS011;2943;48.012;10.968;2024-02-23T08:09:19;7.00;;;3.77;;
5833;SDS011;2943;48.012;10.968;2024-02-23T08:11:48;2.63;;;2.20;;
5833;SDS011;2943;48.012;10.968;2024-02-23T08:14:16;4.30;;;3.17;;
5833;SDS011;2943;48.012;10.968;2024-02-23T08:16:43;8.13;;;2.40;;
5833;SDS011;2943;48.012;10.968;2024-02-23T08:19:12;2.70;;;2.10;;
5833;SDS011;2943;48.012;10.968;2024-02-23T08:21:39;2.33;;;2.13;;
5833;SDS011;2943;48.012;10.968;2024-02-23T08:24:07;2.40;;;1.70;;
5833;SDS011;2943;48.012;10.968;2024-02-23T08:26:34;1.73;;;1.50;;
5833;SDS011;2943;48.012;10.968;2024-02-23T08:29:03;2.00;;;1.50;;
5833;SDS011;2943;48.012;10.968;2024-02-23T08:31:30;5.23;;;1.83;;
5833;SDS011;2943;48.012;10.968;2024-02-23T08:33:57;2.00;;;1.80;;
5833;SDS011;2943;48.012;10.968;2024-02-23T08:36:26;4.97;;;2.60;;
5833;SDS011;2943;48.012;10.968;2024-02-23T08:38:53;3.50;;;2.70;;
5833;SDS011;2943;48.012;10.968;2024-02-23T08:41:20;5.47;;;2.70;;
5833;SDS011;2943;48.012;10.968;2024-02-23T08:43:47;9.80;;;4.23;;
5833;SDS011;2943;48.012;10.968;2024-02-23T08:46:15;5.53;;;3.10;;
5833;SDS011;2943;48.012;10.968;2024-02-23T08:48:42;3.90;;;1.70;;
5833;SDS011;2943;48.012;10.968;2024-02-23T08:51:09;1.67;;;1.57;;
5833;SDS011;2943;48.012;10.968;2024-02-23T08:53:37;2.00;;;1.80;;
5833;SDS011;2943;48.012;10.968;2024-02-23T08:56:06;3.00;;;1.70;;
5833;SDS011;2943;48.012;10.968;2024-02-23T08:58:33;8.50;;;2.10;;
5833;SDS011;2943;48.012;10.968;2024-02-23T09:01:00;2.20;;;1.63;;
5833;SDS011;2943;48.012;10.968;2024-02-23T09:03:29;2.37;;;1.80;;
5833;SDS011;2943;48.012;10.968;2024-02-23T09:05:56;1.40;;;1.30;;
5833;SDS011;2943;48.012;10.968;2024-02-23T09:08:23;2.30;;;1.40;;
5833;SDS011;2943;48.012;10.968;2024-02-23T09:10:51;2.27;;;1.50;;
5833;SDS011;2943;48.012;10.968;2024-02-23T09:13:18;1.50;;;1.40;;
5833;SDS011;2943;48.012;10.968;2024-02-23T09:15:45;2.50;;;1.60;;
5833;SDS011;2943;48.012;10.968;2024-02-23T09:18:12;10.52;;;5.50;;
5833;SDS011;2943;48.012;10.968;2024-02-23T09:20:40;6.63;;;3.90;;
5833;SDS011;2943;48.012;10.968;2024-02-23T09:23:07;10.43;;;4.10;;
5833;SDS011;2943;48.012;10.968;2024-02-23T09:25:34;2.83;;;1.80;;
5833;SDS011;2943;48.012;10.968;2024-02-23T09:28:02;1.67;;;1.40;;
5833;SDS011;2943;48.012;10.968;2024-02-23T09:30:30;2.93;;;2.10;;
5833;SDS011;2943;48.012;10.968;2024-02-23T09:32:57;12.93;;;6.13;;
5833;SDS011;2943;48.012;10.968;2024-02-23T09:35:23;14.30;;;6.80;;
5833;SDS011;2943;48.012;10.968;2024-02-23T09:37:50;19.50;;;6.90;;
5833;SDS011;2943;48.012;10.968;2024-02-23T09:40:18;21.33;;;8.33;;
5833;SDS011;2943;48.012;10.968;2024-02-23T09:42:47;13.83;;;6.03;;
5833;SDS011;2943;48.012;10.968;2024-02-23T09:45:21;5.63;;;2.83;;
5833;SDS011;2943;48.012;10.968;2024-02-23T09:47:50;7.30;;;4.70;;
5833;SDS011;2943;48.012;10.968;2024-02-23T09:50:18;7.20;;;3.50;;
5833;SDS011;2943;48.012;10.968;2024-02-23T09:52:48;3.07;;;2.00;;
5833;SDS011;2943;48.012;10.968;2024-02-23T09:55:16;2.37;;;1.60;;
5833;SDS011;2943;48.012;10.968;2024-02-23T09:57:44;1.57;;;1.47;;
5833;SDS011;2943;48.012;10.968;2024-02-23T10:00:12;5.43;;;2.37;;
5833;SDS011;2943;48.012;10.968;2024-02-23T10:02:43;2.80;;;2.40;;
5833;SDS011;2943;48.012;10.968;2024-02-23T10:05:11;5.07;;;3.00;;
5833;SDS011;2943;48.012;10.968;2024-02-23T10:07:40;3.87;;;2.67;;
5833;SDS011;2943;48.012;10.968;2024-02-23T10:10:08;3.07;;;2.20;;
5833;SDS011;2943;48.012;10.968;2024-02-23T10:12:36;2.73;;;2.00;;
5833;SDS011;2943;48.012;10.968;2024-02-23T10:15:03;4.60;;;1.90;;
5833;SDS011;2943;48.012;10.968;2024-02-23T10:17:31;4.40;;;2.00;;
5833;SDS011;2943;48.012;10.968;2024-02-23T10:20:00;3.57;;;1.60;;
5833;SDS011;2943;48.012;10.968;2024-02-23T10:22:30;4.90;;;2.57;;
5833;SDS011;2943;48.012;10.968;2024-02-23T10:25:00;3.63;;;2.30;;
5833;SDS011;2943;48.012;10.968;2024-02-23T10:27:27;2.10;;;1.90;;
5833;SDS011;2943;48.012;10.968;2024-02-23T10:29:54;3.97;;;1.30;;
5833;SDS011;2943;48.012;10.968;2024-02-23T10:32:21;2.13;;;1.90;;
5833;SDS011;2943;48.012;10.968;2024-02-23T10:34:50;4.88;;;2.20;;
5833;SDS011;2943;48.012;10.968;2024-02-23T10:37:20;3.70;;;2.23;;
5833;SDS011;2943;48.012;10.968;2024-02-23T10:39:48;2.10;;;1.90;;
5833;SDS011;2943;48.012;10.968;2024-02-23T10:42:20;2.90;;;1.60;;
5833;SDS011;2943;48.012;10.968;2024-02-23T10:44:52;11.63;;;3.27;;
5833;SDS011;2943;48.012;10.968;2024-02-23T10:47:20;12.93;;;5.30;;
5833;SDS011;2943;48.012;10.968;2024-02-23T10:49:48;16.43;;;8.10;;
5833;SDS011;2943;48.012;10.968;2024-02-23T10:52:19;23.27;;;13.77;;
5833;SDS011;2943;48.012;10.968;2024-02-23T10:54:50;15.97;;;9.77;;
5833;SDS011;2943;48.012;10.968;2024-02-23T10:57:18;9.47;;;6.20;;
5833;SDS011;2943;48.012;10.968;2024-02-23T10:59:46;6.07;;;3.20;;
5833;SDS011;2943;48.012;10.968;2024-02-23T11:02:17;3.40;;;3.10;;
5833;SDS011;2943;48.012;10.968;2024-02-23T11:04:47;1.90;;;1.80;;
5833;SDS011;2943;48.012;10.968;2024-02-23T11:07:16;1.40;;;1.30;;
5833;SDS011;2943;48.012;10.968;2024-02-23T11:09:48;1.40;;;1.30;;
5833;SDS011;2943;48.012;10.968;2024-02-23T11:12:22;4.10;;;1.50;;
5833;SDS011;2943;48.012;10.968;2024-02-23T11:14:50;1.50;;;1.40;;
5833;SDS011;2943;48.012;10.968;2024-02-23T11:17:17;2.90;;;1.63;;
5833;SDS011;2943;48.012;10.968;2024-02-23T11:19:45;3.80;;;1.40;;
5833;SDS011;2943;48.012;10.968;2024-02-23T11:22:20;1.50;;;1.40;;
5833;SDS011;2943;48.012;10.968;2024-02-23T11:24:52;1.60;;;1.50;;
5833;SDS011;2943;48.012;10.968;2024-02-23T11:27:20;1.60;;;1.50;;
5833;SDS011;2943;48.012;10.968;2024-02-23T11:30:01;1.67;;;1.40;;
5833;SDS011;2943;48.012;10.968;2024-02-23T11:32:36;1.87;;;1.47;;
5833;SDS011;2943;48.012;10.968;2024-02-23T11:35:05;1.60;;;1.50;;
5833;SDS011;2943;48.012;10.968;2024-02-23T11:37:44;1.50;;;1.40;;
5833;SDS011;2943;48.012;10.968;2024-02-23T11:40:17;1.63;;;1.30;;
5833;SDS011;2943;48.012;10.968;2024-02-23T11:42:44;3.17;;;2.30;;
5833;SDS011;2943;48.012;10.968;2024-02-23T11:45:12;3.27;;;1.93;;
5833;SDS011;2943;48.012;10.968;2024-02-23T11:47:39;2.30;;;2.10;;
5833;SDS011;2943;48.012;10.968;2024-02-23T11:50:08;3.87;;;2.80;;
5833;SDS011;2943;48.012;10.968;2024-02-23T11:52:40;4.33;;;2.43;;
5833;SDS011;2943;48.012;10.968;2024-02-23T11:55:09;3.97;;;2.73;;
5833;SDS011;2943;48.012;10.968;2024-02-23T11:57:36;3.00;;;2.10;;
5833;SDS011;2943;48.012;10.968;2024-02-23T12:00:05;6.50;;;2.10;;
5833;SDS011;2943;48.012;10.968;2024-02-23T12:02:34;1.97;;;1.87;;
5833;SDS011;2943;48.012;10.968;2024-02-23T12:05:02;1.90;;;1.80;;
5833;SDS011;2943;48.012;10.968;2024-02-23T12:07:29;2.83;;;2.43;;
5833;SDS011;2943;48.012;10.968;2024-02-23T12:09:57;2.53;;;1.30;;
5833;SDS011;2943;48.012;10.968;2024-02-23T12:12:26;1.93;;;1.40;;
5833;SDS011;2943;48.012;10.968;2024-02-23T12:14:53;2.07;;;1.50;;
5833;SDS011;2943;48.012;10.968;2024-02-23T12:17:21;2.40;;;1.97;;
5833;SDS011;2943;48.012;10.968;2024-02-23T12:19:48;9.63;;;3.63;;
5833;SDS011;2943;48.012;10.968;2024-02-23T12:22:15;2.47;;;2.27;;
5833;SDS011;2943;48.012;10.968;2024-02-23T12:24:43;2.03;;;1.80;;
5833;SDS011;2943;48.012;10.968;2024-02-23T12:27:15;2.20;;;1.73;;
5833;SDS011;2943;48.012;10.968;2024-02-23T12:29:51;5.50;;;1.73;;
5833;SDS011;2943;48.012;10.968;2024-02-23T12:32:19;2.30;;;1.30;;
5833;SDS011;2943;48.012;10.968;2024-02-23T12:34:47;2.20;;;2.00;;
5833;SDS011;2943;48.012;10.968;2024-02-23T12:37:14;4.07;;;2.10;;
5833;SDS011;2943;48.012;10.968;2024-02-23T12:39:42;6.77;;;2.30;;
5833;SDS011;2943;48.012;10.968;2024-02-23T12:42:09;5.60;;;2.50;;
5833;SDS011;2943;48.012;10.968;2024-02-23T12:44:36;2.97;;;2.07;;
5833;SDS011;2943;48.012;10.968;2024-02-23T12:47:05;2.47;;;2.10;;
5833;SDS011;2943;48.012;10.968;2024-02-23T12:49:32;2.87;;;1.90;;
5833;SDS011;2943;48.012;10.968;2024-02-23T12:51:59;1.87;;;1.77;;
5833;SDS011;2943;48.012;10.968;2024-02-23T12:54:26;3.63;;;2.47;;
5833;SDS011;2943;48.012;10.968;2024-02-23T12:56:53;2.43;;;2.10;;
5833;SDS011;2943;48.012;10.968;2024-02-23T12:59:22;4.63;;;2.90;;
5833;SDS011;2943;48.012;10.968;2024-02-23T13:01:49;3.33;;;2.67;;
5833;SDS011;2943;48.012;10.968;2024-02-23T13:04:17;4.30;;;2.70;;
5833;SDS011;2943;48.012;10.968;2024-02-23T13:06:44;8.50;;;2.87;;
5833;SDS011;2943;48.012;10.968;2024-02-23T13:09:12;5.03;;;2.40;;
5833;SDS011;2943;48.012;10.968;2024-02-23T13:11:39;2.50;;;2.30;;
5833;SDS011;2943;48.012;10.968;2024-02-23T13:14:07;7.60;;;2.20;;
5833;SDS011;2943;48.012;10.968;2024-02-23T13:16:35;5.10;;;1.73;;
5833;SDS011;2943;48.012;10.968;2024-02-23T13:19:02;11.70;;;2.20;;
5833;SDS011;2943;48.012;10.968;2024-02-23T13:21:31;9.47;;;1.73;;
5833;SDS011;2943;48.012;10.968;2024-02-23T13:23:58;1.63;;;1.53;;
5833;SDS011;2943;48.012;10.968;2024-02-23T13:26:25;2.20;;;1.73;;
5833;SDS011;2943;48.012;10.968;2024-02-23T13:28:52;2.80;;;2.10;;
5833;SDS011;2943;48.012;10.968;2024-02-23T13:31:19;1.80;;;1.70;;
5833;SDS011;2943;48.012;10.968;2024-02-23T13:33:46;2.20;;;2.00;;
5833;SDS011;2943;48.012;10.968;2024-02-23T13:36:16;2.00;;;1.50;;
5833;SDS011;2943;48.012;10.968;2024-02-23T13:38:44;1.60;;;1.50;;
5833;SDS011;2943;48.012;10.968;2024-02-23T13:41:11;1.93;;;1.60;;
5833;SDS011;2943;48.012;10.968;2024-02-23T13:43:39;6.03;;;2.03;;
5833;SDS011;2943;48.012;10.968;2024-02-23T13:46:06;2.00;;;1.80;;
5833;SDS011;2943;48.012;10.968;2024-02-23T13:48:33;1.63;;;1.53;;
5833;SDS011;2943;48.012;10.968;2024-02-23T13:51:00;4.32;;;1.85;;
5833;SDS011;2943;48.012;10.968;2024-02-23T13:53:28;1.87;;;1.60;;
5833;SDS011;2943;48.012;10.968;2024-02-23T13:55:58;3.65;;;1.98;;
5833;SDS011;2943;48.012;10.968;2024-02-23T13:58:25;2.27;;;1.90;;
5833;SDS011;2943;48.012;10.968;2024-02-23T14:00:52;2.10;;;1.60;;
5833;SDS011;2943;48.012;10.968;2024-02-23T14:03:20;1.60;;;1.50;;
5833;SDS011;2943;48.012;10.968;2024-02-23T14:05:48;2.90;;;2.20;;
5833;SDS011;2943;48.012;10.968;2024-02-23T14:08:15;2.27;;;2.07;;
5833;SDS011;2943;48.012;10.968;2024-02-23T14:10:42;1.93;;;1.73;;
5833;SDS011;2943;48.012;10.968;2024-02-23T14:13:12;4.40;;;2.47;;
5833;SDS011;2943;48.012;10.968;2024-02-23T14:15:40;2.80;;;2.03;;
5833;SDS011;2943;48.012;10.968;2024-02-23T14:18:07;7.23;;;2.50;;
5833;SDS011;2943;48.012;10.968;2024-02-23T14:20:34;5.93;;;3.37;;
5833;SDS011;2943;48.012;10.968;2024-02-23T14:23:01;13.47;;;3.33;;
5833;SDS011;2943;48.012;10.968;2024-02-23T14:25:31;5.80;;;3.43;;
5833;SDS011;2943;48.012;10.968;2024-02-23T14:27:58;5.40;;;3.83;;
5833;SDS011;2943;48.012;10.968;2024-02-23T14:30:27;4.72;;;3.10;;
5833;SDS011;2943;48.012;10.968;2024-02-23T14:32:54;3.97;;;2.60;;
5833;SDS011;2943;48.012;10.968;2024-02-23T14:35:21;3.50;;;2.33;;
5833;SDS011;2943;48.012;10.968;2024-02-23T14:37:48;3.77;;;2.10;;
5833;SDS011;2943;48.012;10.968;2024-02-23T14:40:15;5.55;;;2.50;;
5833;SDS011;2943;48.012;10.968;2024-02-23T14:42:42;2.50;;;1.87;;
5833;SDS011;2943;48.012;10.968;2024-02-23T14:45:09;2.90;;;1.73;;
5833;SDS011;2943;48.012;10.968;2024-02-23T14:47:39;5.20;;;2.60;;
5833;SDS011;2943;48.012;10.968;2024-02-23T14:50:09;13.50;;;3.90;;
5833;SDS011;2943;48.012;10.968;2024-02-23T14:52:36;4.57;;;2.20;;
5833;SDS011;2943;48.012;10.968;2024-02-23T14:55:03;2.37;;;1.80;;
5833;SDS011;2943;48.012;10.968;2024-02-23T14:57:30;3.27;;;2.23;;
5833;SDS011;2943;48.012;10.968;2024-02-23T14:59:57;6.43;;;4.00;;
5833;SDS011;2943;48.012;10.968;2024-02-23T15:02:28;3.67;;;2.70;;
5833;SDS011;2943;48.012;10.968;2024-02-23T15:04:57;3.70;;;2.40;;